sensor_id;sensor_type;location;lat;lon;timestamp;P1;durP1;ratioP1;P2;durP2;ratioP2
44446;SDS011;30152;52.066;5.358;2024-03-08T07:15:56;59.22;;;34.88;;
44446;SDS011;30152;52.066;5.358;2024-03-08T07:18:25;57.10;;;34.53;;
44446;SDS011;30152;52.066;5.358;2024-03-08T07:20:52;56.10;;;33.92;;
44446;SDS011;30152;52.066;5.358;2024-03-08T07:23:18;50.78;;;32.72;;
44446;SDS011;30152;52.066;5.358;2024-03-08T07:26:03;55.30;;;34.28;;
44446;SDS011;30152;52.066;5.358;2024-03-08T07:28:29;54.67;;;32.80;;
44446;SDS011;30152;52.066;5.358;2024-03-08T07:30:56;53.10;;;31.92;;
44446;SDS011;30152;52.066;5.358;2024-03-08T07:33:34;54.17;;;32.65;;
44446;SDS011;30152;52.066;5.358;2024-03-08T07:36:00;56.22;;;33.50;;
44446;SDS011;30152;52.066;5.358;2024-03-08T07:38:26;49.17;;;30.92;;
44446;SDS011;30152;52.066;5.358;2024-03-08T07:40:52;47.17;;;30.63;;
44446;SDS011;30152;52.066;5.358;2024-03-08T07:43:18;52.22;;;30.73;;
44446;SDS011;30152;52.066;5.358;2024-03-08T07:45:44;50.03;;;31.42;;
44446;SDS011;30152;52.066;5.358;2024-03-08T07:48:10;46.22;;;29.08;;
44446;SDS011;30152;52.066;5.358;2024-03-08T07:50:37;48.30;;;29.45;;
44446;SDS011;30152;52.066;5.358;2024-03-08T07:53:07;50.42;;;31.17;;
44446;SDS011;30152;52.066;5.358;2024-03-08T07:55:33;49.78;;;30.90;;
44446;SDS011;30152;52.066;5.358;2024-03-08T07:58:00;48.17;;;30.17;;
44446;SDS011;30152;52.066;5.358;2024-03-08T08:00:26;49.85;;;30.45;;
44446;SDS011;30152;52.066;5.358;2024-03-08T08:02:52;48.47;;;29.75;;
44446;SDS011;30152;52.066;5.358;2024-03-08T08:05:18;48.03;;;30.75;;
44446;SDS011;30152;52.066;5.358;2024-03-08T08:07:44;46.85;;;29.33;;
44446;SDS011;30152;52.066;5.358;2024-03-08T08:10:14;48.00;;;29.55;;
44446;SDS011;30152;52.066;5.358;2024-03-08T08:12:50;47.07;;;29.10;;
44446;SDS011;30152;52.066;5.358;2024-03-08T08:15:19;47.03;;;29.37;;
44446;SDS011;30152;52.066;5.358;2024-03-08T08:17:45;49.03;;;30.40;;
44446;SDS011;30152;52.066;5.358;2024-03-08T08:20:11;52.03;;;30.98;;
44446;SDS011;30152;52.066;5.358;2024-03-08T08:22:38;49.88;;;30.58;;
44446;SDS011;30152;52.066;5.358;2024-03-08T08:25:05;47.00;;;29.25;;
44446;SDS011;30152;52.066;5.358;2024-03-08T08:27:31;47.75;;;28.70;;
44446;SDS011;30152;52.066;5.358;2024-03-08T08:29:57;47.22;;;28.17;;
44446;SDS011;30152;52.066;5.358;2024-03-08T08:32:22;46.55;;;27.85;;
44446;SDS011;30152;52.066;5.358;2024-03-08T08:34:48;46.78;;;27.80;;
44446;SDS011;30152;52.066;5.358;2024-03-08T08:37:14;46.83;;;27.58;;
44446;SDS011;30152;52.066;5.358;2024-03-08T08:39:41;49.15;;;28.08;;
44446;SDS011;30152;52.066;5.358;2024-03-08T08:42:07;48.97;;;28.85;;
44446;SDS011;30152;52.066;5.358;2024-03-08T08:44:34;50.78;;;28.10;;
44446;SDS011;30152;52.066;5.358;2024-03-08T08:47:00;46.65;;;27.30;;
44446;SDS011;30152;52.066;5.358;2024-03-08T08:49:29;46.80;;;27.40;;
44446;SDS011;30152;52.066;5.358;2024-03-08T08:51:55;47.40;;;27.73;;
44446;SDS011;30152;52.066;5.358;2024-03-08T08:54:23;43.58;;;25.83;;
44446;SDS011;30152;52.066;5.358;2024-03-08T08:56:50;43.83;;;26.92;;
44446;SDS011;30152;52.066;5.358;2024-03-08T08:59:16;44.85;;;27.35;;
44446;SDS011;30152;52.066;5.358;2024-03-08T09:01:45;43.22;;;26.15;;
44446;SDS011;30152;52.066;5.358;2024-03-08T09:04:15;45.75;;;27.95;;
44446;SDS011;30152;52.066;5.358;2024-03-08T09:06:41;49.53;;;27.60;;
44446;SDS011;30152;52.066;5.358;2024-03-08T09:09:07;44.15;;;26.13;;
44446;SDS011;30152;52.066;5.358;2024-03-08T09:11:34;45.42;;;27.17;;
44446;SDS011;30152;52.066;5.358;2024-03-08T09:14:00;46.28;;;28.40;;
44446;SDS011;30152;52.066;5.358;2024-03-08T09:16:27;44.75;;;27.98;;
44446;SDS011;30152;52.066;5.358;2024-03-08T09:18:53;42.72;;;26.75;;
44446;SDS011;30152;52.066;5.358;2024-03-08T09:21:19;40.58;;;26.30;;
44446;SDS011;30152;52.066;5.358;2024-03-08T09:23:45;44.80;;;27.95;;
44446;SDS011;30152;52.066;5.358;2024-03-08T09:26:11;43.53;;;27.20;;
44446;SDS011;30152;52.066;5.358;2024-03-08T09:28:37;45.58;;;28.13;;
44446;SDS011;30152;52.066;5.358;2024-03-08T09:31:04;41.15;;;26.83;;
44446;SDS011;30152;52.066;5.358;2024-03-08T09:33:30;43.17;;;27.00;;
44446;SDS011;30152;52.066;5.358;2024-03-08T09:35:56;43.47;;;26.70;;
44446;SDS011;30152;52.066;5.358;2024-03-08T09:38:23;45.90;;;27.45;;
44446;SDS011;30152;52.066;5.358;2024-03-08T09:40:51;42.35;;;26.77;;
44446;SDS011;30152;52.066;5.358;2024-03-08T09:43:18;42.37;;;27.17;;
44446;SDS011;30152;52.066;5.358;2024-03-08T09:45:44;40.53;;;26.60;;
44446;SDS011;30152;52.066;5.358;2024-03-08T09:48:11;42.03;;;26.88;;
44446;SDS011;30152;52.066;5.358;2024-03-08T09:50:39;42.10;;;26.17;;
44446;SDS011;30152;52.066;5.358;2024-03-08T09:53:06;44.07;;;25.60;;
44446;SDS011;30152;52.066;5.358;2024-03-08T09:55:36;41.72;;;26.45;;
44446;SDS011;30152;52.066;5.358;2024-03-08T09:58:03;42.25;;;26.35;;
44446;SDS011;30152;52.066;5.358;2024-03-08T10:00:50;37.78;;;24.17;;
44446;SDS011;30152;52.066;5.358;2024-03-08T10:03:16;42.03;;;25.63;;
44446;SDS011;30152;52.066;5.358;2024-03-08T10:05:42;37.60;;;24.98;;
44446;SDS011;30152;52.066;5.358;2024-03-08T10:08:09;39.07;;;24.80;;
44446;SDS011;30152;52.066;5.358;2024-03-08T10:10:37;42.70;;;24.87;;
44446;SDS011;30152;52.066;5.358;2024-03-08T10:13:06;40.80;;;25.77;;
44446;SDS011;30152;52.066;5.358;2024-03-08T10:15:32;39.20;;;24.20;;
44446;SDS011;30152;52.066;5.358;2024-03-08T10:17:59;38.63;;;24.97;;
44446;SDS011;30152;52.066;5.358;2024-03-08T10:20:24;40.10;;;23.90;;
44446;SDS011;30152;52.066;5.358;2024-03-08T10:22:51;34.92;;;22.40;;
44446;SDS011;30152;52.066;5.358;2024-03-08T10:25:18;37.97;;;23.23;;
44446;SDS011;30152;52.066;5.358;2024-03-08T10:27:45;34.72;;;22.27;;
44446;SDS011;30152;52.066;5.358;2024-03-08T10:30:15;33.50;;;20.98;;
44446;SDS011;30152;52.066;5.358;2024-03-08T10:32:44;35.47;;;21.85;;
44446;SDS011;30152;52.066;5.358;2024-03-08T10:35:11;32.50;;;21.30;;
44446;SDS011;30152;52.066;5.358;2024-03-08T10:37:58;34.33;;;20.25;;
44446;SDS011;30152;52.066;5.358;2024-03-08T10:40:25;32.63;;;21.13;;
44446;SDS011;30152;52.066;5.358;2024-03-08T10:42:56;33.22;;;20.55;;
44446;SDS011;30152;52.066;5.358;2024-03-08T10:47:54;32.63;;;20.67;;
44446;SDS011;30152;52.066;5.358;2024-03-08T10:50:24;33.75;;;20.90;;
44446;SDS011;30152;52.066;5.358;2024-03-08T10:52:51;32.67;;;20.87;;
44446;SDS011;30152;52.066;5.358;2024-03-08T10:55:18;32.13;;;19.90;;
44446;SDS011;30152;52.066;5.358;2024-03-08T10:57:45;33.70;;;20.57;;
44446;SDS011;30152;52.066;5.358;2024-03-08T11:00:12;31.63;;;19.17;;
44446;SDS011;30152;52.066;5.358;2024-03-08T11:02:39;30.75;;;19.42;;
44446;SDS011;30152;52.066;5.358;2024-03-08T11:05:05;30.92;;;19.48;;
44446;SDS011;30152;52.066;5.358;2024-03-08T11:07:40;31.08;;;19.10;;
44446;SDS011;30152;52.066;5.358;2024-03-08T11:10:06;29.45;;;18.88;;
44446;SDS011;30152;52.066;5.358;2024-03-08T11:12:36;30.20;;;18.70;;
44446;SDS011;30152;52.066;5.358;2024-03-08T11:15:03;30.83;;;19.50;;
44446;SDS011;30152;52.066;5.358;2024-03-08T11:22:40;31.38;;;20.20;;
44446;SDS011;30152;52.066;5.358;2024-03-08T11:25:08;30.77;;;18.48;;
44446;SDS011;30152;52.066;5.358;2024-03-08T11:27:37;26.95;;;18.08;;
44446;SDS011;30152;52.066;5.358;2024-03-08T11:30:04;29.52;;;19.00;;
44446;SDS011;30152;52.066;5.358;2024-03-08T11:32:37;27.63;;;17.42;;
44446;SDS011;30152;52.066;5.358;2024-03-08T11:35:07;29.10;;;17.83;;
44446;SDS011;30152;52.066;5.358;2024-03-08T11:37:46;27.27;;;17.15;;
44446;SDS011;30152;52.066;5.358;2024-03-08T11:40:13;27.52;;;17.15;;
44446;SDS011;30152;52.066;5.358;2024-03-08T11:42:43;29.45;;;17.33;;
44446;SDS011;30152;52.066;5.358;2024-03-08T11:45:11;27.10;;;17.33;;
44446;SDS011;30152;52.066;5.358;2024-03-08T11:47:38;26.52;;;15.88;;
44446;SDS011;30152;52.066;5.358;2024-03-08T11:50:05;22.48;;;14.45;;
44446;SDS011;30152;52.066;5.358;2024-03-08T11:52:35;21.05;;;14.15;;
44446;SDS011;30152;52.066;5.358;2024-03-08T11:55:04;24.73;;;14.02;;
44446;SDS011;30152;52.066;5.358;2024-03-08T11:57:30;20.27;;;13.73;;
44446;SDS011;30152;52.066;5.358;2024-03-08T11:59:57;19.98;;;13.27;;
44446;SDS011;30152;52.066;5.358;2024-03-08T12:02:23;22.15;;;14.10;;
44446;SDS011;30152;52.066;5.358;2024-03-08T12:04:59;22.13;;;13.68;;
44446;SDS011;30152;52.066;5.358;2024-03-08T12:07:28;22.70;;;14.90;;
44446;SDS011;30152;52.066;5.358;2024-03-08T12:12:43;24.67;;;15.07;;
44446;SDS011;30152;52.066;5.358;2024-03-08T12:15:09;23.92;;;15.10;;
44446;SDS011;30152;52.066;5.358;2024-03-08T12:17:36;22.88;;;14.57;;
44446;SDS011;30152;52.066;5.358;2024-03-08T12:20:11;24.65;;;15.20;;
44446;SDS011;30152;52.066;5.358;2024-03-08T12:22:40;24.67;;;15.82;;
44446;SDS011;30152;52.066;5.358;2024-03-08T12:25:06;23.80;;;15.43;;
44446;SDS011;30152;52.066;5.358;2024-03-08T12:27:35;23.88;;;15.73;;
44446;SDS011;30152;52.066;5.358;2024-03-08T12:30:23;24.75;;;15.85;;
44446;SDS011;30152;52.066;5.358;2024-03-08T12:32:58;24.80;;;16.45;;
44446;SDS011;30152;52.066;5.358;2024-03-08T12:35:26;24.23;;;15.38;;
44446;SDS011;30152;52.066;5.358;2024-03-08T12:37:52;27.63;;;15.95;;
44446;SDS011;30152;52.066;5.358;2024-03-08T12:40:19;26.23;;;16.63;;
44446;SDS011;30152;52.066;5.358;2024-03-08T12:42:46;25.13;;;16.05;;
44446;SDS011;30152;52.066;5.358;2024-03-08T12:45:13;27.17;;;16.00;;
44446;SDS011;30152;52.066;5.358;2024-03-08T12:47:39;24.48;;;15.82;;
44446;SDS011;30152;52.066;5.358;2024-03-08T12:50:07;27.60;;;16.63;;
44446;SDS011;30152;52.066;5.358;2024-03-08T12:52:33;23.45;;;15.45;;
44446;SDS011;30152;52.066;5.358;2024-03-08T12:54:59;23.17;;;15.68;;
44446;SDS011;30152;52.066;5.358;2024-03-08T12:57:31;24.27;;;16.05;;
44446;SDS011;30152;52.066;5.358;2024-03-08T12:59:58;24.95;;;16.27;;
44446;SDS011;30152;52.066;5.358;2024-03-08T13:02:24;26.83;;;15.95;;
44446;SDS011;30152;52.066;5.358;2024-03-08T13:04:51;25.73;;;16.17;;
44446;SDS011;30152;52.066;5.358;2024-03-08T13:07:22;26.53;;;16.97;;
44446;SDS011;30152;52.066;5.358;2024-03-08T13:09:50;25.48;;;15.98;;
44446;SDS011;30152;52.066;5.358;2024-03-08T13:12:18;25.83;;;16.00;;
44446;SDS011;30152;52.066;5.358;2024-03-08T13:14:45;27.60;;;17.00;;
44446;SDS011;30152;52.066;5.358;2024-03-08T13:17:11;25.70;;;16.40;;
44446;SDS011;30152;52.066;5.358;2024-03-08T13:19:37;26.33;;;16.77;;
44446;SDS011;30152;52.066;5.358;2024-03-08T13:22:04;24.63;;;16.40;;
44446;SDS011;30152;52.066;5.358;2024-03-08T13:24:31;27.35;;;17.13;;
44446;SDS011;30152;52.066;5.358;2024-03-08T13:26:58;25.65;;;16.58;;
44446;SDS011;30152;52.066;5.358;2024-03-08T13:29:25;27.90;;;16.23;;
44446;SDS011;30152;52.066;5.358;2024-03-08T13:31:51;27.55;;;17.33;;
44446;SDS011;30152;52.066;5.358;2024-03-08T13:34:18;26.15;;;16.70;;
44446;SDS011;30152;52.066;5.358;2024-03-08T13:36:52;28.35;;;17.30;;
44446;SDS011;30152;52.066;5.358;2024-03-08T13:39:19;27.52;;;17.45;;
44446;SDS011;30152;52.066;5.358;2024-03-08T13:41:46;29.02;;;17.00;;
44446;SDS011;30152;52.066;5.358;2024-03-08T13:44:12;29.70;;;18.33;;
44446;SDS011;30152;52.066;5.358;2024-03-08T13:46:38;30.80;;;17.65;;
44446;SDS011;30152;52.066;5.358;2024-03-08T13:49:04;26.98;;;16.98;;
44446;SDS011;30152;52.066;5.358;2024-03-08T13:51:33;28.33;;;18.23;;
44446;SDS011;30152;52.066;5.358;2024-03-08T13:53:59;28.75;;;18.35;;
44446;SDS011;30152;52.066;5.358;2024-03-08T13:56:26;27.58;;;17.73;;
44446;SDS011;30152;52.066;5.358;2024-03-08T13:58:52;27.98;;;16.83;;
44446;SDS011;30152;52.066;5.358;2024-03-08T14:01:21;27.03;;;17.87;;
44446;SDS011;30152;52.066;5.358;2024-03-08T14:03:47;27.60;;;18.45;;
44446;SDS011;30152;52.066;5.358;2024-03-08T14:06:13;25.85;;;17.75;;
44446;SDS011;30152;52.066;5.358;2024-03-08T14:08:39;27.88;;;18.20;;
44446;SDS011;30152;52.066;5.358;2024-03-08T14:11:05;28.90;;;18.08;;
44446;SDS011;30152;52.066;5.358;2024-03-08T14:13:44;26.83;;;18.07;;
44446;SDS011;30152;52.066;5.358;2024-03-08T14:16:13;31.63;;;18.45;;
44446;SDS011;30152;52.066;5.358;2024-03-08T14:18:40;28.40;;;17.90;;
44446;SDS011;30152;52.066;5.358;2024-03-08T14:21:07;28.85;;;18.05;;
44446;SDS011;30152;52.066;5.358;2024-03-08T14:23:33;28.38;;;18.65;;
44446;SDS011;30152;52.066;5.358;2024-03-08T14:25:59;28.88;;;18.75;;
44446;SDS011;30152;52.066;5.358;2024-03-08T14:28:25;27.02;;;17.85;;
44446;SDS011;30152;52.066;5.358;2024-03-08T14:30:54;30.75;;;18.30;;
44446;SDS011;30152;52.066;5.358;2024-03-08T14:33:20;27.20;;;18.23;;
44446;SDS011;30152;52.066;5.358;2024-03-08T14:35:46;29.38;;;18.90;;
44446;SDS011;30152;52.066;5.358;2024-03-08T14:38:14;27.58;;;17.92;;
44446;SDS011;30152;52.066;5.358;2024-03-08T14:40:42;29.83;;;19.30;;
44446;SDS011;30152;52.066;5.358;2024-03-08T14:43:12;28.48;;;18.25;;
44446;SDS011;30152;52.066;5.358;2024-03-08T14:45:39;28.73;;;18.50;;
44446;SDS011;30152;52.066;5.358;2024-03-08T14:48:06;27.67;;;18.30;;
44446;SDS011;30152;52.066;5.358;2024-03-08T14:50:32;28.00;;;17.77;;
44446;SDS011;30152;52.066;5.358;2024-03-08T14:52:58;27.52;;;17.95;;
44446;SDS011;30152;52.066;5.358;2024-03-08T14:55:25;27.65;;;18.33;;
44446;SDS011;30152;52.066;5.358;2024-03-08T14:57:51;25.92;;;17.30;;
44446;SDS011;30152;52.066;5.358;2024-03-08T15:00:19;27.77;;;18.27;;
44446;SDS011;30152;52.066;5.358;2024-03-08T15:03:00;29.90;;;18.70;;
44446;SDS011;30152;52.066;5.358;2024-03-08T15:05:33;27.83;;;17.40;;
44446;SDS011;30152;52.066;5.358;2024-03-08T15:08:02;27.00;;;17.30;;
44446;SDS011;30152;52.066;5.358;2024-03-08T15:10:34;27.63;;;17.25;;
44446;SDS011;30152;52.066;5.358;2024-03-08T15:13:00;26.73;;;17.33;;
44446;SDS011;30152;52.066;5.358;2024-03-08T15:15:27;31.02;;;17.80;;
44446;SDS011;30152;52.066;5.358;2024-03-08T15:17:55;26.73;;;18.25;;
44446;SDS011;30152;52.066;5.358;2024-03-08T15:20:23;24.60;;;16.35;;
44446;SDS011;30152;52.066;5.358;2024-03-08T15:22:50;27.25;;;18.17;;
44446;SDS011;30152;52.066;5.358;2024-03-08T15:25:19;26.03;;;17.50;;
44446;SDS011;30152;52.066;5.358;2024-03-08T15:27:51;29.92;;;17.38;;
44446;SDS011;30152;52.066;5.358;2024-03-08T15:30:17;28.05;;;17.65;;
44446;SDS011;30152;52.066;5.358;2024-03-08T15:32:49;27.92;;;18.17;;
44446;SDS011;30152;52.066;5.358;2024-03-08T15:35:16;27.83;;;17.60;;
44446;SDS011;30152;52.066;5.358;2024-03-08T15:37:43;29.57;;;18.40;;
44446;SDS011;30152;52.066;5.358;2024-03-08T15:40:12;28.40;;;18.17;;
44446;SDS011;30152;52.066;5.358;2024-03-08T15:45:14;28.10;;;17.77;;
44446;SDS011;30152;52.066;5.358;2024-03-08T15:47:41;29.53;;;18.83;;
44446;SDS011;30152;52.066;5.358;2024-03-08T15:50:08;28.92;;;19.08;;
44446;SDS011;30152;52.066;5.358;2024-03-08T15:52:37;33.67;;;20.77;;
44446;SDS011;30152;52.066;5.358;2024-03-08T15:55:05;31.58;;;20.13;;
44446;SDS011;30152;52.066;5.358;2024-03-08T15:57:31;32.05;;;19.52;;
44446;SDS011;30152;52.066;5.358;2024-03-08T15:59:58;32.25;;;19.10;;
44446;SDS011;30152;52.066;5.358;2024-03-08T16:02:28;32.58;;;20.00;;
44446;SDS011;30152;52.066;5.358;2024-03-08T16:04:54;28.67;;;19.60;;
44446;SDS011;30152;52.066;5.358;2024-03-08T16:07:20;31.60;;;19.75;;
44446;SDS011;30152;52.066;5.358;2024-03-08T16:09:46;30.87;;;19.87;;
44446;SDS011;30152;52.066;5.358;2024-03-08T16:12:12;30.42;;;19.40;;
44446;SDS011;30152;52.066;5.358;2024-03-08T16:14:38;30.23;;;20.48;;
44446;SDS011;30152;52.066;5.358;2024-03-08T16:17:04;33.42;;;20.80;;
44446;SDS011;30152;52.066;5.358;2024-03-08T16:19:30;33.80;;;22.27;;
44446;SDS011;30152;52.066;5.358;2024-03-08T16:21:56;27.05;;;18.45;;
44446;SDS011;30152;52.066;5.358;2024-03-08T16:24:22;30.02;;;19.00;;
44446;SDS011;30152;52.066;5.358;2024-03-08T16:26:48;28.65;;;17.85;;
44446;SDS011;30152;52.066;5.358;2024-03-08T16:29:14;32.47;;;21.75;;
44446;SDS011;30152;52.066;5.358;2024-03-08T16:31:41;28.70;;;20.03;;
44446;SDS011;30152;52.066;5.358;2024-03-08T16:34:10;29.15;;;19.85;;
44446;SDS011;30152;52.066;5.358;2024-03-08T16:36:36;31.05;;;21.23;;
44446;SDS011;30152;52.066;5.358;2024-03-08T16:39:05;33.85;;;24.33;;
44446;SDS011;30152;52.066;5.358;2024-03-08T16:41:31;32.47;;;20.98;;
44446;SDS011;30152;52.066;5.358;2024-03-08T16:43:57;27.60;;;18.83;;
44446;SDS011;30152;52.066;5.358;2024-03-08T16:46:23;31.10;;;20.48;;
44446;SDS011;30152;52.066;5.358;2024-03-08T16:48:49;30.17;;;19.07;;
44446;SDS011;30152;52.066;5.358;2024-03-08T16:51:14;30.42;;;19.77;;
44446;SDS011;30152;52.066;5.358;2024-03-08T16:53:40;30.85;;;19.13;;
44446;SDS011;30152;52.066;5.358;2024-03-08T16:56:07;29.10;;;18.93;;
44446;SDS011;30152;52.066;5.358;2024-03-08T16:58:36;28.55;;;18.35;;
44446;SDS011;30152;52.066;5.358;2024-03-08T17:01:02;28.25;;;17.98;;
44446;SDS011;30152;52.066;5.358;2024-03-08T17:03:28;27.48;;;18.05;;
44446;SDS011;30152;52.066;5.358;2024-03-08T17:05:54;30.77;;;19.15;;
44446;SDS011;30152;52.066;5.358;2024-03-08T17:08:20;32.42;;;19.65;;
44446;SDS011;30152;52.066;5.358;2024-03-08T17:10:47;29.70;;;18.83;;
44446;SDS011;30152;52.066;5.358;2024-03-08T17:13:12;30.15;;;19.08;;
44446;SDS011;30152;52.066;5.358;2024-03-08T17:15:40;32.92;;;20.77;;
44446;SDS011;30152;52.066;5.358;2024-03-08T17:18:07;33.58;;;21.08;;
44446;SDS011;30152;52.066;5.358;2024-03-08T17:20:34;31.23;;;21.17;;
44446;SDS011;30152;52.066;5.358;2024-03-08T17:23:02;32.72;;;20.77;;
44446;SDS011;30152;52.066;5.358;2024-03-08T17:25:31;31.48;;;20.55;;
44446;SDS011;30152;52.066;5.358;2024-03-08T17:27:58;34.25;;;21.00;;
44446;SDS011;30152;52.066;5.358;2024-03-08T17:30:26;32.65;;;20.60;;
44446;SDS011;30152;52.066;5.358;2024-03-08T17:32:53;33.15;;;21.10;;
44446;SDS011;30152;52.066;5.358;2024-03-08T17:35:22;31.97;;;20.97;;
44446;SDS011;30152;52.066;5.358;2024-03-08T17:37:50;34.88;;;20.85;;
44446;SDS011;30152;52.066;5.358;2024-03-08T17:40:17;37.72;;;21.50;;
44446;SDS011;30152;52.066;5.358;2024-03-08T17:42:47;32.00;;;20.88;;
44446;SDS011;30152;52.066;5.358;2024-03-08T17:45:13;35.50;;;21.37;;
44446;SDS011;30152;52.066;5.358;2024-03-08T17:47:40;34.70;;;21.50;;
44446;SDS011;30152;52.066;5.358;2024-03-08T17:50:06;34.63;;;21.58;;
44446;SDS011;30152;52.066;5.358;2024-03-08T17:52:35;35.13;;;22.90;;
44446;SDS011;30152;52.066;5.358;2024-03-08T17:55:03;35.15;;;22.75;;
44446;SDS011;30152;52.066;5.358;2024-03-08T17:57:29;37.55;;;24.55;;
44446;SDS011;30152;52.066;5.358;2024-03-08T17:59:56;37.00;;;23.02;;
44446;SDS011;30152;52.066;5.358;2024-03-08T18:02:22;34.03;;;21.93;;
44446;SDS011;30152;52.066;5.358;2024-03-08T18:04:49;34.05;;;22.35;;
44446;SDS011;30152;52.066;5.358;2024-03-08T18:07:15;39.13;;;24.45;;
44446;SDS011;30152;52.066;5.358;2024-03-08T18:09:41;36.90;;;24.37;;
44446;SDS011;30152;52.066;5.358;2024-03-08T18:12:07;44.17;;;30.50;;
44446;SDS011;30152;52.066;5.358;2024-03-08T18:14:33;40.92;;;28.33;;
44446;SDS011;30152;52.066;5.358;2024-03-08T18:16:59;38.92;;;25.67;;
44446;SDS011;30152;52.066;5.358;2024-03-08T18:19:25;42.30;;;27.95;;
44446;SDS011;30152;52.066;5.358;2024-03-08T18:21:51;38.88;;;25.63;;
44446;SDS011;30152;52.066;5.358;2024-03-08T18:24:18;42.92;;;27.75;;
44446;SDS011;30152;52.066;5.358;2024-03-08T18:26:45;56.80;;;36.93;;
44446;SDS011;30152;52.066;5.358;2024-03-08T18:29:11;54.53;;;36.20;;
44446;SDS011;30152;52.066;5.358;2024-03-08T18:31:40;57.20;;;35.65;;
44446;SDS011;30152;52.066;5.358;2024-03-08T18:34:07;45.50;;;28.63;;
44446;SDS011;30152;52.066;5.358;2024-03-08T18:36:33;38.00;;;24.42;;
44446;SDS011;30152;52.066;5.358;2024-03-08T18:38:59;44.70;;;29.20;;
44446;SDS011;30152;52.066;5.358;2024-03-08T18:41:25;40.33;;;24.70;;
44446;SDS011;30152;52.066;5.358;2024-03-08T18:43:53;39.67;;;25.13;;
44446;SDS011;30152;52.066;5.358;2024-03-08T18:46:22;41.40;;;24.60;;
44446;SDS011;30152;52.066;5.358;2024-03-08T18:48:48;39.50;;;25.07;;
44446;SDS011;30152;52.066;5.358;2024-03-08T18:51:15;40.20;;;24.52;;
44446;SDS011;30152;52.066;5.358;2024-03-08T18:53:41;40.78;;;24.67;;
44446;SDS011;30152;52.066;5.358;2024-03-08T18:56:07;41.03;;;24.85;;
44446;SDS011;30152;52.066;5.358;2024-03-08T18:58:33;38.75;;;24.95;;
44446;SDS011;30152;52.066;5.358;2024-03-08T19:01:00;44.90;;;26.88;;
44446;SDS011;30152;52.066;5.358;2024-03-08T19:03:26;61.40;;;36.13;;
44446;SDS011;30152;52.066;5.358;2024-03-08T19:05:53;50.97;;;30.38;;
44446;SDS011;30152;52.066;5.358;2024-03-08T19:08:19;152.00;;;70.18;;
44446;SDS011;30152;52.066;5.358;2024-03-08T19:10:47;111.80;;;53.88;;
44446;SDS011;30152;52.066;5.358;2024-03-08T19:13:13;85.45;;;44.30;;
44446;SDS011;30152;52.066;5.358;2024-03-08T19:15:40;53.55;;;32.72;;
44446;SDS011;30152;52.066;5.358;2024-03-08T19:18:07;54.20;;;33.63;;
44446;SDS011;30152;52.066;5.358;2024-03-08T19:20:33;48.50;;;30.85;;
44446;SDS011;30152;52.066;5.358;2024-03-08T19:23:00;52.42;;;33.97;;
44446;SDS011;30152;52.066;5.358;2024-03-08T19:25:27;49.53;;;30.55;;
44446;SDS011;30152;52.066;5.358;2024-03-08T19:27:57;50.35;;;33.42;;
44446;SDS011;30152;52.066;5.358;2024-03-08T19:30:24;48.55;;;28.35;;
44446;SDS011;30152;52.066;5.358;2024-03-08T19:32:56;45.88;;;27.30;;
44446;SDS011;30152;52.066;5.358;2024-03-08T19:35:22;46.17;;;28.17;;
44446;SDS011;30152;52.066;5.358;2024-03-08T19:37:52;44.67;;;26.65;;
44446;SDS011;30152;52.066;5.358;2024-03-08T19:40:19;42.28;;;25.17;;
44446;SDS011;30152;52.066;5.358;2024-03-08T19:42:46;45.13;;;27.40;;
44446;SDS011;30152;52.066;5.358;2024-03-08T19:45:13;44.28;;;26.95;;
44446;SDS011;30152;52.066;5.358;2024-03-08T19:47:40;43.03;;;25.47;;
44446;SDS011;30152;52.066;5.358;2024-03-08T19:50:10;41.50;;;25.40;;
44446;SDS011;30152;52.066;5.358;2024-03-08T19:52:39;42.42;;;24.70;;
44446;SDS011;30152;52.066;5.358;2024-03-08T19:55:05;40.95;;;24.85;;
44446;SDS011;30152;52.066;5.358;2024-03-08T19:57:31;44.00;;;26.38;;
44446;SDS011;30152;52.066;5.358;2024-03-08T19:59:58;46.28;;;26.02;;
44446;SDS011;30152;52.066;5.358;2024-03-08T20:02:24;43.17;;;25.45;;
44446;SDS011;30152;52.066;5.358;2024-03-08T20:04:51;43.30;;;25.92;;
44446;SDS011;30152;52.066;5.358;2024-03-08T20:07:17;59.13;;;32.47;;
44446;SDS011;30152;52.066;5.358;2024-03-08T20:09:43;62.70;;;37.17;;
44446;SDS011;30152;52.066;5.358;2024-03-08T20:12:09;105.50;;;52.00;;
44446;SDS011;30152;52.066;5.358;2024-03-08T20:14:37;48.75;;;29.80;;
44446;SDS011;30152;52.066;5.358;2024-03-08T20:17:04;70.53;;;41.85;;
44446;SDS011;30152;52.066;5.358;2024-03-08T20:19:30;65.00;;;36.38;;
44446;SDS011;30152;52.066;5.358;2024-03-08T20:21:57;73.57;;;40.05;;
44446;SDS011;30152;52.066;5.358;2024-03-08T20:24:24;115.18;;;54.65;;
44446;SDS011;30152;52.066;5.358;2024-03-08T20:26:50;91.28;;;46.47;;
44446;SDS011;30152;52.066;5.358;2024-03-08T20:29:16;47.42;;;28.05;;
44446;SDS011;30152;52.066;5.358;2024-03-08T20:31:42;46.97;;;28.23;;
44446;SDS011;30152;52.066;5.358;2024-03-08T20:34:08;43.30;;;27.02;;
44446;SDS011;30152;52.066;5.358;2024-03-08T20:36:35;44.35;;;26.25;;
44446;SDS011;30152;52.066;5.358;2024-03-08T20:39:01;46.90;;;28.25;;
44446;SDS011;30152;52.066;5.358;2024-03-08T20:41:27;43.47;;;25.90;;
44446;SDS011;30152;52.066;5.358;2024-03-08T20:43:53;44.33;;;26.23;;
44446;SDS011;30152;52.066;5.358;2024-03-08T20:46:20;41.95;;;26.42;;
44446;SDS011;30152;52.066;5.358;2024-03-08T20:48:46;46.08;;;28.25;;
44446;SDS011;30152;52.066;5.358;2024-03-08T20:51:14;42.33;;;26.25;;
44446;SDS011;30152;52.066;5.358;2024-03-08T20:53:42;45.58;;;26.58;;
44446;SDS011;30152;52.066;5.358;2024-03-08T20:56:08;47.35;;;28.25;;
44446;SDS011;30152;52.066;5.358;2024-03-08T20:58:34;44.77;;;27.10;;
44446;SDS011;30152;52.066;5.358;2024-03-08T21:01:00;45.13;;;27.53;;
44446;SDS011;30152;52.066;5.358;2024-03-08T21:03:28;48.27;;;30.63;;
44446;SDS011;30152;52.066;5.358;2024-03-08T21:05:56;45.75;;;27.90;;
44446;SDS011;30152;52.066;5.358;2024-03-08T21:08:23;48.25;;;27.63;;
44446;SDS011;30152;52.066;5.358;2024-03-08T21:10:51;44.75;;;26.58;;
44446;SDS011;30152;52.066;5.358;2024-03-08T21:13:21;45.73;;;26.20;;
44446;SDS011;30152;52.066;5.358;2024-03-08T21:15:49;44.63;;;26.70;;
44446;SDS011;30152;52.066;5.358;2024-03-08T21:18:14;48.40;;;27.60;;
44446;SDS011;30152;52.066;5.358;2024-03-08T21:20:41;44.67;;;26.20;;
44446;SDS011;30152;52.066;5.358;2024-03-08T21:23:07;46.13;;;27.63;;
44446;SDS011;30152;52.066;5.358;2024-03-08T21:25:33;47.45;;;28.42;;
44446;SDS011;30152;52.066;5.358;2024-03-08T21:28:01;45.53;;;26.17;;
44446;SDS011;30152;52.066;5.358;2024-03-08T21:30:29;46.92;;;27.70;;
44446;SDS011;30152;52.066;5.358;2024-03-08T21:32:55;45.40;;;27.38;;
44446;SDS011;30152;52.066;5.358;2024-03-08T21:35:26;50.00;;;29.33;;
44446;SDS011;30152;52.066;5.358;2024-03-08T21:37:54;49.10;;;29.42;;
44446;SDS011;30152;52.066;5.358;2024-03-08T21:40:20;50.60;;;30.02;;
44446;SDS011;30152;52.066;5.358;2024-03-08T21:42:47;52.45;;;31.42;;
44446;SDS011;30152;52.066;5.358;2024-03-08T21:45:13;53.35;;;30.95;;
44446;SDS011;30152;52.066;5.358;2024-03-08T21:47:42;52.17;;;31.33;;
